Time;durP1;ratioP1;P1;durP2;ratioP2;P2;SDS_P1;SDS_P2;PMS_P1;PMS_P2;Temp;Humidity;BMP_temperature;BMP_pressure;BME280_temperature;BME280_humidity;BME280_pressure;Samples;Min_cycle;Max_cycle;Signal;HPM_P1;HPM_P2
2021/12/15 00:01:25;;;;;;;130.60;44.50;;;9.30;99.90;;;;;;4898878;29;20090;-84
2021/12/15 00:03:51;;;;;;;136.85;44.53;;;9.40;99.90;;;;;;4914885;29;20051;-85
2021/12/15 00:06:19;;;;;;;123.90;42.58;;;9.40;99.90;;;;;;4915480;29;20052;-86
2021/12/15 00:08:50;;;;;;;113.82;41.40;;;9.40;99.90;;;;;;4873182;29;20059;-85
2021/12/15 00:11:17;;;;;;;135.23;46.20;;;9.40;99.90;;;;;;4898710;29;20048;-85
2021/12/15 00:13:44;;;;;;;114.30;44.53;;;9.40;99.90;;;;;;4899558;29;20032;-86
2021/12/15 00:16:11;;;;;;;110.70;39.25;;;9.40;99.90;;;;;;4897125;29;20044;-86
2021/12/15 00:18:41;;;;;;;121.20;44.00;;;9.40;99.90;;;;;;4898550;29;20485;-86
2021/12/15 00:21:09;;;;;;;129.38;45.00;;;9.40;99.90;;;;;;4902514;29;20290;-86
2021/12/15 00:23:36;;;;;;;113.65;42.58;;;9.40;99.90;;;;;;4915022;29;20126;-85
2021/12/15 00:26:02;;;;;;;120.43;41.42;;;9.40;99.90;;;;;;4914651;29;20544;-85
2021/12/15 00:28:28;;;;;;;117.53;42.72;;;9.40;99.90;;;;;;4899135;29;20047;-86
2021/12/15 00:30:54;;;;;;;110.43;42.05;;;9.40;99.90;;;;;;4882964;29;20044;-85
2021/12/15 00:33:20;;;;;;;108.80;42.50;;;9.40;99.90;;;;;;4898306;29;20047;-86
2021/12/15 00:35:46;;;;;;;115.70;43.83;;;9.40;99.90;;;;;;4914645;29;20608;-86
2021/12/15 00:38:12;;;;;;;117.55;43.67;;;9.50;99.90;;;;;;4888575;29;20035;-86
2021/12/15 00:40:38;;;;;;;104.88;39.88;;;9.40;99.90;;;;;;4898674;29;20054;-85
2021/12/15 00:43:04;;;;;;;107.43;40.05;;;9.40;99.90;;;;;;4916887;29;20043;-85
2021/12/15 00:45:30;;;;;;;112.93;42.42;;;9.40;99.90;;;;;;4901423;29;20517;-85
2021/12/15 00:47:56;;;;;;;109.88;41.63;;;9.40;99.90;;;;;;4898359;29;20564;-86
2021/12/15 00:50:26;;;;;;;107.88;40.97;;;9.50;99.90;;;;;;4898824;29;20079;-85
2021/12/15 00:52:51;;;;;;;116.07;43.42;;;9.40;99.90;;;;;;4915052;29;20086;-86
2021/12/15 00:55:21;;;;;;;111.15;41.90;;;9.40;99.90;;;;;;4914575;29;20532;-85
2021/12/15 00:57:48;;;;;;;106.57;41.85;;;9.40;99.90;;;;;;4915533;29;20067;-86
2021/12/15 01:00:20;;;;;;;109.05;40.95;;;9.40;99.90;;;;;;4913273;29;20035;-86
2021/12/15 01:02:47;;;;;;;112.70;41.15;;;9.40;99.90;;;;;;4898295;29;20039;-86
2021/12/15 01:05:15;;;;;;;109.63;39.35;;;9.40;99.90;;;;;;4896872;29;20043;-85
2021/12/15 01:07:42;;;;;;;107.95;40.42;;;9.80;99.90;;;;;;4911330;29;20085;-85
2021/12/15 01:10:10;;;;;;;115.13;40.90;;;9.40;99.90;;;;;;4911403;29;20035;-86
2021/12/15 01:14:28;;;;;;;114.53;39.97;;;9.40;99.90;;;;;;4898617;29;20036;-86
2021/12/15 01:21:01;;;;;;;122.05;41.22;;;9.40;99.90;;;;;;4898527;29;20055;-86
2021/12/15 01:23:29;;;;;;;109.88;40.03;;;9.40;99.90;;;;;;4910624;29;20063;-86
2021/12/15 01:26:06;;;;;;;102.07;37.58;;;9.40;99.90;;;;;;4914254;29;20044;-86
2021/12/15 01:28:32;;;;;;;113.25;39.13;;;9.40;99.90;;;;;;4913135;29;20544;-85
2021/12/15 01:30:59;;;;;;;113.20;40.05;;;9.40;99.90;;;;;;4893677;29;20047;-85
2021/12/15 01:33:27;;;;;;;112.53;38.17;;;9.40;99.90;;;;;;4898545;29;20107;-86
2021/12/15 01:35:55;;;;;;;111.53;38.35;;;9.50;99.90;;;;;;4882559;29;20059;-85
2021/12/15 01:38:23;;;;;;;96.93;35.63;;;9.40;99.90;;;;;;4898004;29;20098;-85
2021/12/15 01:40:49;;;;;;;109.53;39.30;;;9.50;99.90;;;;;;4897681;29;20082;-86
2021/12/15 01:43:19;;;;;;;124.70;40.53;;;9.50;99.90;;;;;;4882277;29;20785;-86
2021/12/15 01:48:35;;;;;;;108.93;38.20;;;9.50;99.90;;;;;;4929445;29;20152;-85
2021/12/15 01:51:02;;;;;;;107.85;37.85;;;9.50;99.90;;;;;;4886747;29;20055;-86
2021/12/15 01:53:28;;;;;;;96.10;35.97;;;9.50;99.90;;;;;;4911254;29;20044;-85
2021/12/15 01:55:54;;;;;;;102.85;36.72;;;9.50;99.90;;;;;;4900812;29;20044;-86
2021/12/15 01:58:20;;;;;;;109.50;37.17;;;9.50;99.90;;;;;;4896866;29;20627;-85
2021/12/15 02:00:52;;;;;;;109.15;36.45;;;9.50;99.90;;;;;;4898319;29;20071;-85
2021/12/15 02:03:18;;;;;;;95.50;34.97;;;9.40;99.90;;;;;;4913006;29;20044;-85
2021/12/15 02:05:44;;;;;;;105.50;37.75;;;9.50;99.90;;;;;;4919311;29;20039;-86
2021/12/15 02:08:12;;;;;;;115.53;36.53;;;9.50;99.90;;;;;;4897398;29;20048;-86
2021/12/15 02:10:40;;;;;;;125.47;38.50;;;9.50;99.90;;;;;;4912601;29;20498;-86
2021/12/15 02:13:09;;;;;;;107.10;35.75;;;9.50;99.90;;;;;;4885244;29;20086;-86
2021/12/15 02:15:39;;;;;;;116.03;37.00;;;9.50;99.90;;;;;;4902178;29;20043;-86
2021/12/15 02:18:08;;;;;;;104.70;35.83;;;9.50;99.90;;;;;;4909994;29;20429;-86
2021/12/15 02:20:40;;;;;;;105.68;34.63;;;9.50;99.90;;;;;;4903616;29;20047;-85
2021/12/15 02:23:10;;;;;;;93.60;33.60;;;9.50;99.90;;;;;;4900245;29;20043;-85
2021/12/15 02:25:36;;;;;;;92.55;31.88;;;9.40;99.90;;;;;;4916886;29;20039;-86
2021/12/15 02:28:05;;;;;;;93.05;30.83;;;9.40;99.90;;;;;;4918824;29;20055;-85
2021/12/15 02:38:39;;;;;;;94.32;31.45;;;9.40;99.90;;;;;;4916430;29;20288;-86
2021/12/15 02:41:11;;;;;;;80.78;27.45;;;9.40;99.90;;;;;;4915476;29;20039;-86
2021/12/15 02:43:36;;;;;;;81.60;29.83;;;9.50;99.90;;;;;;4900449;29;20111;-85
2021/12/15 02:46:04;;;;;;;86.30;29.52;;;9.40;99.90;;;;;;4916869;29;20039;-86
2021/12/15 02:48:30;;;;;;;89.32;30.30;;;9.40;99.90;;;;;;4916362;29;20078;-85
2021/12/15 02:50:57;;;;;;;91.43;31.70;;;9.40;99.90;;;;;;4898856;29;20075;-85
2021/12/15 02:53:23;;;;;;;89.45;32.22;;;9.40;99.90;;;;;;4884357;29;20054;-86
2021/12/15 02:55:50;;;;;;;80.28;28.73;;;9.40;99.90;;;;;;4902160;29;20032;-85
2021/12/15 02:58:18;;;;;;;84.07;29.30;;;9.40;99.90;;;;;;4899161;29;20036;-86
2021/12/15 03:00:59;;;;;;;85.50;31.55;;;9.40;99.90;;;;;;4931320;29;20383;-85
2021/12/15 03:06:16;;;;;;;81.75;30.50;;;9.40;99.90;;;;;;4913325;29;20051;-85
2021/12/15 03:16:41;;;;;;;89.25;30.80;;;9.40;99.90;;;;;;4914707;29;20059;-85
2021/12/15 03:19:07;;;;;;;72.95;28.35;;;9.40;99.90;;;;;;4930019;29;20080;-86
2021/12/15 03:21:33;;;;;;;88.40;31.40;;;9.60;99.90;;;;;;4930464;29;20135;-85
2021/12/15 03:24:03;;;;;;;101.05;33.45;;;9.40;99.90;;;;;;4914987;29;20515;-86
2021/12/15 03:26:37;;;;;;;87.50;31.17;;;9.30;99.90;;;;;;4917029;29;20050;-85
2021/12/15 03:37:27;;;;;;;115.43;36.03;;;9.30;99.90;;;;;;4885319;29;20063;-85
2021/12/15 03:40:24;;;;;;;107.90;34.40;;;9.30;99.90;;;;;;4892170;29;20524;-85
2021/12/15 03:43:02;;;;;;;115.50;36.47;;;9.30;99.90;;;;;;4892641;29;20123;-85
2021/12/15 03:45:32;;;;;;;112.70;37.65;;;9.30;99.90;;;;;;4914690;29;20040;-85
2021/12/15 03:48:13;;;;;;;119.38;37.42;;;9.30;99.90;;;;;;4930384;29;20054;-85
2021/12/15 03:50:41;;;;;;;116.10;35.55;;;9.30;99.90;;;;;;4915126;29;20678;-85
2021/12/15 03:53:07;;;;;;;123.85;38.38;;;9.30;99.90;;;;;;4914107;29;20083;-86
2021/12/15 03:55:35;;;;;;;114.03;35.90;;;9.30;99.90;;;;;;4893467;29;20067;-85
2021/12/15 03:58:07;;;;;;;123.72;37.83;;;9.30;99.90;;;;;;4899439;29;20122;-85
2021/12/15 04:00:33;;;;;;;116.20;38.00;;;9.30;99.90;;;;;;4911882;29;20048;-85
2021/12/15 04:02:59;;;;;;;116.82;39.13;;;9.30;99.90;;;;;;4890992;29;20079;-85
2021/12/15 04:05:24;;;;;;;122.43;38.20;;;9.30;99.90;;;;;;4909683;29;20684;-85
2021/12/15 04:07:51;;;;;;;124.97;39.92;;;9.30;99.90;;;;;;4899273;29;20137;-86
2021/12/15 04:10:20;;;;;;;117.95;37.33;;;9.30;99.90;;;;;;4898119;29;20493;-85
2021/12/15 04:12:47;;;;;;;121.47;39.70;;;9.30;99.90;;;;;;4916584;29;20036;-85
2021/12/15 04:17:59;;;;;;;115.53;37.65;;;9.30;99.90;;;;;;4914134;29;20051;-85
2021/12/15 04:20:29;;;;;;;116.20;38.33;;;9.30;99.90;;;;;;4899349;29;20146;-85
2021/12/15 04:22:56;;;;;;;123.63;40.38;;;9.30;99.90;;;;;;4901957;29;20047;-85
2021/12/15 04:25:25;;;;;;;116.10;37.28;;;9.30;99.90;;;;;;4891337;29;20089;-85
2021/12/15 04:28:12;;;;;;;125.88;40.17;;;9.30;99.90;;;;;;4897746;29;20378;-86
2021/12/15 04:30:53;;;;;;;112.93;39.03;;;9.30;99.90;;;;;;4916290;29;20032;-85
2021/12/15 04:33:33;;;;;;;112.45;38.03;;;9.30;99.90;;;;;;4899428;29;20035;-85
2021/12/15 04:36:01;;;;;;;119.72;39.40;;;9.30;99.90;;;;;;4915283;29;20047;-85
2021/12/15 04:38:29;;;;;;;105.40;37.72;;;9.30;99.90;;;;;;4914836;29;20032;-85
2021/12/15 04:40:57;;;;;;;116.63;38.90;;;9.30;99.90;;;;;;4915318;29;20135;-85
2021/12/15 04:43:23;;;;;;;120.00;38.88;;;9.30;99.90;;;;;;4914913;29;20103;-85
2021/12/15 04:45:49;;;;;;;111.47;39.38;;;9.30;99.90;;;;;;4896557;29;20063;-85
2021/12/15 04:48:15;;;;;;;118.82;39.63;;;9.30;99.90;;;;;;4888422;29;20047;-85
2021/12/15 04:50:41;;;;;;;121.15;39.75;;;9.30;99.90;;;;;;4915201;29;20043;-85
2021/12/15 04:53:08;;;;;;;128.63;41.63;;;9.40;99.90;;;;;;4900573;29;20043;-85
2021/12/15 04:55:36;;;;;;;111.25;38.83;;;9.30;99.90;;;;;;4905158;29;20071;-85
2021/12/15 04:58:05;;;;;;;121.95;42.28;;;9.30;99.90;;;;;;4899769;29;20094;-85
2021/12/15 05:00:35;;;;;;;116.18;42.15;;;9.30;99.90;;;;;;4912482;29;20141;-84
2021/12/15 05:03:03;;;;;;;119.68;42.42;;;9.30;99.90;;;;;;4915123;29;20097;-85
2021/12/15 05:05:29;;;;;;;113.28;39.58;;;9.40;99.90;;;;;;4898945;29;20039;-85
2021/12/15 05:07:56;;;;;;;112.28;41.28;;;9.30;99.90;;;;;;4898576;29;20046;-85
2021/12/15 05:10:22;;;;;;;115.07;40.65;;;9.30;99.90;;;;;;4908339;29;20549;-85
2021/12/15 05:12:49;;;;;;;116.53;41.17;;;9.30;99.90;;;;;;4904390;29;20054;-85
2021/12/15 05:15:15;;;;;;;110.85;42.28;;;9.30;99.90;;;;;;4890525;29;20673;-85
2021/12/15 05:17:41;;;;;;;118.10;41.05;;;9.30;99.90;;;;;;4899600;29;20123;-85
2021/12/15 05:20:09;;;;;;;111.72;41.35;;;9.30;99.90;;;;;;4890939;29;20163;-85
2021/12/15 05:22:38;;;;;;;117.22;42.83;;;9.30;99.90;;;;;;4915997;29;20048;-85
2021/12/15 05:25:06;;;;;;;126.20;44.63;;;9.80;99.90;;;;;;4916741;29;20540;-85
2021/12/15 05:27:33;;;;;;;123.15;43.00;;;9.30;99.90;;;;;;4890483;29;20054;-85
2021/12/15 05:29:59;;;;;;;124.30;43.45;;;9.30;99.90;;;;;;4905460;29;20136;-85
2021/12/15 05:32:25;;;;;;;123.32;44.58;;;9.60;99.90;;;;;;4900214;29;20122;-85
2021/12/15 05:34:57;;;;;;;126.75;43.17;;;9.30;99.90;;;;;;4918798;29;20044;-85
2021/12/15 05:37:23;;;;;;;119.82;43.22;;;9.30;99.90;;;;;;4901927;29;20051;-85
2021/12/15 05:39:50;;;;;;;126.03;41.97;;;9.30;99.90;;;;;;4902338;29;20046;-85
2021/12/15 05:42:18;;;;;;;118.60;43.53;;;9.20;99.90;;;;;;4933120;29;20028;-85
2021/12/15 05:44:44;;;;;;;110.25;42.63;;;9.30;99.90;;;;;;4893351;29;20043;-85
2021/12/15 05:47:10;;;;;;;113.03;42.10;;;9.30;99.90;;;;;;4895799;29;20048;-85
2021/12/15 05:49:36;;;;;;;111.75;44.92;;;9.30;99.90;;;;;;4903845;29;20051;-85
2021/12/15 05:52:03;;;;;;;113.88;44.08;;;9.30;99.90;;;;;;4902087;29;20043;-85
2021/12/15 05:54:29;;;;;;;123.10;46.88;;;9.30;99.90;;;;;;4916840;29;20091;-85
2021/12/15 05:56:56;;;;;;;124.30;44.60;;;9.20;99.90;;;;;;4918458;29;20111;-85
2021/12/15 05:59:21;;;;;;;114.35;43.72;;;9.40;99.90;;;;;;4917720;29;20405;-85
2021/12/15 06:01:48;;;;;;;126.05;45.20;;;9.20;99.90;;;;;;4901425;29;20047;-85
2021/12/15 06:04:13;;;;;;;117.07;45.47;;;9.20;99.90;;;;;;4901416;29;20043;-85
2021/12/15 06:06:40;;;;;;;114.50;44.88;;;9.20;99.90;;;;;;4917238;29;20402;-84
2021/12/15 06:09:09;;;;;;;118.15;45.10;;;9.20;99.90;;;;;;4932524;29;20046;-85
2021/12/15 06:11:36;;;;;;;131.35;46.00;;;9.20;99.90;;;;;;4903889;29;20035;-84
2021/12/15 06:14:02;;;;;;;115.68;45.22;;;9.20;99.90;;;;;;4900947;29;20044;-85
2021/12/15 06:16:28;;;;;;;120.68;46.92;;;9.20;99.90;;;;;;4903433;29;20114;-85
2021/12/15 06:18:53;;;;;;;117.65;43.63;;;9.20;99.90;;;;;;4888815;29;20044;-84
2021/12/15 06:21:23;;;;;;;111.80;44.45;;;9.20;99.90;;;;;;4916944;29;20115;-85
2021/12/15 06:23:50;;;;;;;112.22;43.30;;;9.20;99.90;;;;;;4885599;29;20455;-85
2021/12/15 06:26:18;;;;;;;122.85;46.00;;;9.20;99.90;;;;;;4934930;29;20063;-85
2021/12/15 06:28:45;;;;;;;122.80;47.58;;;9.20;99.90;;;;;;4918474;29;20039;-85
2021/12/15 06:31:13;;;;;;;118.07;45.03;;;9.20;99.90;;;;;;4901076;29;20043;-85
2021/12/15 06:33:39;;;;;;;125.25;47.50;;;9.20;99.90;;;;;;4899982;29;20054;-85
2021/12/15 06:36:08;;;;;;;122.80;45.65;;;9.20;99.90;;;;;;4917143;29;20576;-84
2021/12/15 06:38:37;;;;;;;117.55;44.22;;;9.20;99.90;;;;;;4896329;29;20110;-85
2021/12/15 06:41:05;;;;;;;119.43;45.28;;;9.20;99.90;;;;;;4900721;29;20050;-85
2021/12/15 06:43:31;;;;;;;114.35;44.30;;;9.20;99.90;;;;;;4900799;29;20044;-85
2021/12/15 06:59:29;;;;;;;111.35;43.35;;;9.30;99.90;;;;;;4916409;29;20123;-85
2021/12/15 07:01:54;;;;;;;120.38;44.35;;;9.20;99.90;;;;;;4900970;29;20040;-84
2021/12/15 07:04:22;;;;;;;124.30;45.63;;;9.20;99.90;;;;;;4896385;29;20068;-85
2021/12/15 07:06:49;;;;;;;129.73;44.25;;;9.20;99.90;;;;;;4909346;29;20505;-85
2021/12/15 07:09:15;;;;;;;117.13;46.15;;;9.20;99.90;;;;;;4903088;29;20087;-84
2021/12/15 07:11:42;;;;;;;112.05;43.15;;;9.20;99.90;;;;;;4900384;29;20110;-85
2021/12/15 07:14:08;;;;;;;123.25;44.38;;;9.20;99.90;;;;;;4931740;29;20075;-85
2021/12/15 07:16:39;;;;;;;117.18;46.33;;;9.20;99.90;;;;;;4915763;29;20052;-85
2021/12/15 07:19:16;;;;;;;128.75;45.42;;;9.20;99.90;;;;;;4913270;29;20056;-84
2021/12/15 07:21:51;;;;;;;118.00;43.80;;;9.20;99.90;;;;;;4906346;29;20038;-85
2021/12/15 07:24:18;;;;;;;115.63;44.47;;;9.30;99.90;;;;;;4917318;29;20047;-85
2021/12/15 07:26:43;;;;;;;111.97;43.03;;;9.30;99.90;;;;;;4899268;29;20044;-85
2021/12/15 07:29:10;;;;;;;125.70;46.22;;;9.30;99.90;;;;;;4901049;29;20460;-84
2021/12/15 07:31:36;;;;;;;117.97;40.95;;;9.30;99.90;;;;;;4914641;29;20044;-86
2021/12/15 07:34:03;;;;;;;122.45;45.15;;;9.30;99.90;;;;;;4915613;29;20123;-84
2021/12/15 07:36:29;;;;;;;117.50;43.92;;;9.30;99.90;;;;;;4900206;29;20039;-85
2021/12/15 07:38:57;;;;;;;121.88;44.50;;;9.30;99.90;;;;;;4893920;29;20094;-85
2021/12/15 07:41:28;;;;;;;113.93;43.35;;;9.30;99.90;;;;;;4917557;29;20043;-84
2021/12/15 07:43:55;;;;;;;110.05;43.25;;;9.30;99.90;;;;;;4899694;29;20122;-84
2021/12/15 07:46:21;;;;;;;106.38;43.63;;;9.30;99.90;;;;;;4915578;29;20082;-85
2021/12/15 07:48:47;;;;;;;112.78;42.85;;;9.30;99.90;;;;;;4904372;29;20605;-84
2021/12/15 07:51:13;;;;;;;106.68;43.55;;;9.30;99.90;;;;;;4905218;29;20044;-84
2021/12/15 07:53:41;;;;;;;112.10;41.05;;;9.20;99.90;;;;;;4915457;29;20126;-84
2021/12/15 07:56:08;;;;;;;123.20;44.20;;;9.30;99.90;;;;;;4913151;29;20043;-84
2021/12/15 07:58:34;;;;;;;113.53;43.40;;;9.30;99.90;;;;;;4914758;29;20088;-85
2021/12/15 08:01:02;;;;;;;113.28;43.28;;;9.30;99.90;;;;;;4897617;29;20486;-85
2021/12/15 08:03:29;;;;;;;112.97;41.97;;;9.40;99.90;;;;;;4887072;29;20051;-85
2021/12/15 08:05:56;;;;;;;113.05;42.15;;;9.30;99.90;;;;;;4912558;29;20446;-85
2021/12/15 08:08:22;;;;;;;104.80;40.55;;;9.20;99.90;;;;;;4931728;29;20050;-85
2021/12/15 08:10:50;;;;;;;108.15;42.13;;;9.30;99.90;;;;;;4903812;29;20459;-85
2021/12/15 08:13:16;;;;;;;107.55;39.58;;;9.30;99.90;;;;;;4919548;29;20043;-85
2021/12/15 08:15:43;;;;;;;110.93;41.33;;;9.30;99.90;;;;;;4904218;29;20067;-85
2021/12/15 08:18:10;;;;;;;118.32;43.92;;;9.30;99.90;;;;;;4900501;29;20454;-85
2021/12/15 08:20:36;;;;;;;107.03;42.08;;;9.30;99.90;;;;;;4879356;29;20062;-86
2021/12/15 08:23:03;;;;;;;112.55;40.95;;;9.30;99.90;;;;;;4897508;29;20040;-90
2021/12/15 08:25:31;;;;;;;118.93;43.38;;;9.30;99.90;;;;;;4899979;29;20042;-87
2021/12/15 08:27:58;;;;;;;113.15;40.97;;;9.40;99.90;;;;;;4897343;29;20046;-84
2021/12/15 08:30:28;;;;;;;107.70;42.67;;;9.30;99.90;;;;;;4868932;29;20494;-83
2021/12/15 08:32:58;;;;;;;106.20;39.78;;;9.40;99.90;;;;;;4913925;29;20565;-84
2021/12/15 08:35:28;;;;;;;110.22;40.55;;;9.30;99.90;;;;;;4900149;29;20430;-83
2021/12/15 08:37:54;;;;;;;118.30;40.53;;;9.30;99.90;;;;;;4915576;29;20424;-84
2021/12/15 08:40:22;;;;;;;103.88;39.80;;;9.40;99.90;;;;;;4908158;29;20043;-84
2021/12/15 08:42:48;;;;;;;100.00;39.88;;;9.40;99.90;;;;;;4905043;29;20130;-83
2021/12/15 08:45:14;;;;;;;105.65;41.42;;;9.30;99.90;;;;;;4878800;29;20123;-83
2021/12/15 08:47:40;;;;;;;106.03;41.30;;;10.00;99.90;;;;;;4908867;29;20054;-84
2021/12/15 08:50:10;;;;;;;97.10;37.75;;;9.40;99.90;;;;;;4902110;29;20043;-83
2021/12/15 08:52:36;;;;;;;99.65;38.60;;;9.40;99.90;;;;;;4905741;29;20032;-83
2021/12/15 08:55:04;;;;;;;105.05;40.53;;;9.40;99.90;;;;;;4868483;29;20048;-83
2021/12/15 08:57:29;;;;;;;107.00;40.33;;;9.40;99.90;;;;;;4903128;29;20044;-83
2021/12/15 08:59:55;;;;;;;103.88;40.15;;;9.50;99.90;;;;;;4911719;29;20047;-85
2021/12/15 09:02:21;;;;;;;97.72;37.45;;;9.40;99.90;;;;;;4927688;29;20126;-87
2021/12/15 09:04:46;;;;;;;102.15;39.75;;;9.40;99.90;;;;;;4901001;29;20039;-86
2021/12/15 09:07:14;;;;;;;103.05;39.67;;;9.40;99.90;;;;;;4874699;29;20501;-86
2021/12/15 09:09:40;;;;;;;99.50;39.95;;;9.50;99.90;;;;;;4886095;29;20044;-86
2021/12/15 09:12:06;;;;;;;96.20;40.05;;;9.40;99.90;;;;;;4926243;29;20055;-86
2021/12/15 09:14:32;;;;;;;96.60;38.67;;;9.40;99.90;;;;;;4885963;29;20055;-86
2021/12/15 09:16:59;;;;;;;95.35;35.40;;;9.50;99.90;;;;;;4883019;29;20056;-86
2021/12/15 09:19:25;;;;;;;91.82;36.13;;;9.40;99.90;;;;;;4915399;29;20036;-86
2021/12/15 09:21:52;;;;;;;90.93;36.13;;;9.50;99.90;;;;;;4870523;29;20043;-86
2021/12/15 09:24:19;;;;;;;92.85;35.13;;;9.50;99.90;;;;;;4899599;29;20048;-85
2021/12/15 09:26:46;;;;;;;98.25;37.25;;;9.50;99.90;;;;;;4899480;29;20509;-85
2021/12/15 09:29:12;;;;;;;103.93;38.38;;;9.50;99.90;;;;;;4884237;29;20055;-84
2021/12/15 09:31:39;;;;;;;102.05;37.70;;;9.50;99.90;;;;;;4871189;29;20044;-85
2021/12/15 09:34:06;;;;;;;92.90;37.20;;;9.50;99.90;;;;;;4912061;29;20043;-84
2021/12/15 09:36:33;;;;;;;97.82;36.45;;;9.50;99.90;;;;;;4915747;29;20112;-84
2021/12/15 09:39:06;;;;;;;94.95;35.85;;;9.50;99.90;;;;;;4886201;29;20046;-84
2021/12/15 09:41:32;;;;;;;88.90;34.78;;;9.60;99.90;;;;;;4911013;29;20050;-85
2021/12/15 09:44:05;;;;;;;87.75;34.30;;;9.60;99.90;;;;;;4901630;29;20043;-85
2021/12/15 09:46:52;;;;;;;;;;;9.60;99.90;;;;;;4891365;29;20122;-85
2021/12/15 10:03:01;;;;;;;83.05;34.33;;;9.80;99.90;;;;;;4896233;29;20075;-85
2021/12/15 10:05:55;;;;;;;86.30;35.08;;;9.80;99.90;;;;;;4895613;29;20083;-85
2021/12/15 10:19:31;;;;;;;71.53;31.75;;;9.90;99.90;;;;;;4912094;29;20165;-85
2021/12/15 10:22:03;;;;;;;71.07;29.75;;;9.80;99.90;;;;;;4904516;29;20047;-85
2021/12/15 10:24:46;;;;;;;78.68;31.42;;;9.90;99.90;;;;;;4918942;29;20118;-85
2021/12/15 10:27:17;;;;;;;80.28;31.85;;;9.90;99.90;;;;;;4905343;29;20058;-85
2021/12/15 10:30:18;;;;;;;76.65;31.85;;;9.80;99.90;;;;;;4885001;29;20442;-84
2021/12/15 10:32:46;;;;;;;81.07;33.08;;;9.90;99.90;;;;;;4908368;29;20143;-85
2021/12/15 10:35:20;;;;;;;78.07;31.90;;;9.80;99.90;;;;;;4904642;29;20052;-85
2021/12/15 10:38:20;;;;;;;87.55;34.58;;;9.80;99.90;;;;;;4912612;29;20090;-85
2021/12/15 10:40:57;;;;;;;82.38;32.33;;;9.80;99.90;;;;;;4895214;29;20039;-85
2021/12/15 10:43:28;;;;;;;72.78;31.90;;;9.80;99.90;;;;;;4921522;29;20047;-85
2021/12/15 10:45:58;;;;;;;70.00;32.78;;;9.80;99.90;;;;;;4918138;29;20035;-85
2021/12/15 10:48:36;;;;;;;69.18;32.30;;;9.80;99.90;;;;;;4906156;29;20048;-85
2021/12/15 10:51:31;;;;;;;70.78;29.75;;;9.80;99.90;;;;;;4918670;29;20528;-84
2021/12/15 10:54:04;;;;;;;66.72;30.15;;;9.80;99.90;;;;;;4860219;29;20549;-84
2021/12/15 10:56:35;;;;;;;70.90;30.15;;;9.80;99.90;;;;;;4901892;29;20031;-85
2021/12/15 10:59:05;;;;;;;68.85;29.10;;;9.40;99.90;;;;;;4906412;29;20032;-84
2021/12/15 11:01:36;;;;;;;70.88;30.48;;;9.80;99.90;;;;;;4915849;29;20127;-85
2021/12/15 11:04:12;;;;;;;70.10;30.23;;;9.80;99.90;;;;;;4904131;29;20059;-85
2021/12/15 11:06:38;;;;;;;74.53;31.75;;;9.80;99.90;;;;;;4885885;29;20044;-85
2021/12/15 11:09:20;;;;;;;73.38;31.40;;;9.80;99.90;;;;;;4873247;29;20463;-84
2021/12/15 11:12:11;;;;;;;73.82;31.17;;;9.90;99.90;;;;;;4899429;29;20102;-84
2021/12/15 11:14:40;;;;;;;63.53;27.25;;;9.90;99.90;;;;;;4902335;29;20068;-84
2021/12/15 11:17:08;;;;;;;57.60;26.63;;;9.90;99.90;;;;;;4900851;29;20059;-84
2021/12/15 11:19:45;;;;;;;64.80;28.35;;;10.00;99.90;;;;;;4917473;29;20047;-85
2021/12/15 11:22:34;;;;;;;51.67;25.83;;;10.00;99.90;;;;;;4900087;29;20032;-85
2021/12/15 11:25:02;;;;;;;49.95;23.70;;;10.00;99.90;;;;;;4916927;29;20044;-85
2021/12/15 11:27:28;;;;;;;47.95;24.90;;;10.10;99.90;;;;;;4917122;29;20044;-85
2021/12/15 11:29:54;;;;;;;45.42;22.98;;;10.10;99.90;;;;;;4909256;29;20043;-85
2021/12/15 11:32:44;;;;;;;43.80;21.40;;;10.20;99.90;;;;;;4930379;29;20051;-86
2021/12/15 11:35:26;;;;;;;46.58;20.35;;;10.30;99.90;;;;;;4901354;29;20103;-85
2021/12/15 11:37:59;;;;;;;37.85;19.92;;;10.30;99.90;;;;;;4884333;29;20050;-86
2021/12/15 11:40:47;;;;;;;38.83;19.63;;;10.30;99.90;;;;;;4901658;29;20036;-86
2021/12/15 11:43:47;;;;;;;36.67;19.30;;;10.40;99.90;;;;;;4930287;29;20033;-85
2021/12/15 11:46:22;;;;;;;36.40;19.77;;;10.40;99.90;;;;;;4883051;29;20147;-86
2021/12/15 11:48:51;;;;;;;41.55;21.10;;;10.40;99.90;;;;;;4916211;29;20036;-86
2021/12/15 11:51:28;;;;;;;39.78;18.88;;;10.40;99.90;;;;;;4900106;29;20044;-86
2021/12/15 11:53:54;;;;;;;42.45;18.98;;;10.40;99.90;;;;;;4918710;29;20429;-85
2021/12/15 11:56:27;;;;;;;39.50;19.35;;;10.40;99.90;;;;;;4919393;29;20035;-85
2021/12/15 11:58:59;;;;;;;43.05;20.77;;;10.40;99.90;;;;;;4916475;29;20046;-85
2021/12/15 12:01:47;;;;;;;37.17;19.53;;;10.40;99.90;;;;;;4936085;29;20043;-84
2021/12/15 12:04:18;;;;;;;38.08;19.25;;;10.40;99.90;;;;;;4900949;29;20039;-85
2021/12/15 12:06:48;;;;;;;39.00;20.02;;;10.40;99.90;;;;;;4916430;29;20414;-87
2021/12/15 12:09:15;;;;;;;36.35;18.70;;;10.30;99.90;;;;;;4905886;29;20149;-86
2021/12/15 12:11:44;;;;;;;37.33;19.48;;;10.30;99.90;;;;;;4870098;29;20390;-87
2021/12/15 12:14:18;;;;;;;35.55;19.92;;;10.30;99.90;;;;;;4875265;29;20039;-86
2021/12/15 12:16:45;;;;;;;37.15;19.70;;;10.60;99.90;;;;;;4900328;29;20044;-87
2021/12/15 12:19:13;;;;;;;36.67;19.05;;;10.20;99.90;;;;;;4921354;29;20043;-87
2021/12/15 12:21:40;;;;;;;36.72;20.42;;;10.40;99.90;;;;;;4900290;29;20035;-87
2021/12/15 12:24:06;;;;;;;38.80;18.83;;;10.20;99.90;;;;;;4869086;29;20043;-86
2021/12/15 12:26:34;;;;;;;40.13;19.30;;;10.20;99.90;;;;;;4922571;29;20098;-87
2021/12/15 12:29:01;;;;;;;34.53;18.90;;;10.20;99.90;;;;;;4869568;29;20036;-87
2021/12/15 12:31:28;;;;;;;35.20;19.00;;;10.40;99.90;;;;;;4856844;29;20040;-87
2021/12/15 12:33:54;;;;;;;36.42;17.80;;;10.30;99.90;;;;;;4873029;29;20039;-86
2021/12/15 12:36:33;;;;;;;34.90;18.10;;;10.30;99.90;;;;;;4917439;29;20559;-86
2021/12/15 12:39:08;;;;;;;36.15;17.83;;;10.30;99.90;;;;;;4917662;29;20035;-86
2021/12/15 12:41:44;;;;;;;35.55;18.60;;;10.30;99.90;;;;;;4917782;29;20042;-86
2021/12/15 12:44:12;;;;;;;39.72;18.58;;;10.30;99.90;;;;;;4917801;29;20114;-86
2021/12/15 12:46:55;;;;;;;32.95;18.67;;;10.90;99.90;;;;;;4933655;29;20497;-87
2021/12/15 12:50:01;;;;;;;32.97;16.98;;;10.30;99.90;;;;;;4917314;29;20497;-86
2021/12/15 13:00:55;;;;;;;26.75;14.80;;;10.30;99.90;;;;;;4941743;29;20098;-85
2021/12/15 13:03:35;;;;;;;33.25;17.05;;;10.30;99.90;;;;;;4915417;29;20041;-84
2021/12/15 13:06:10;;;;;;;29.23;16.42;;;10.30;99.90;;;;;;4918909;29;20035;-85
2021/12/15 13:08:38;;;;;;;29.30;15.23;;;10.30;99.90;;;;;;4933795;29;20047;-85
2021/12/15 13:11:18;;;;;;;30.23;15.15;;;10.30;99.90;;;;;;4933753;29;20376;-85
2021/12/15 13:14:08;;;;;;;28.05;15.27;;;10.20;99.90;;;;;;4917599;29;20122;-85
2021/12/15 13:16:40;;;;;;;30.15;15.43;;;10.30;99.90;;;;;;4917876;29;20047;-85
2021/12/15 13:19:25;;;;;;;31.38;15.27;;;10.30;99.90;;;;;;4908171;29;20054;-85
2021/12/15 13:22:14;;;;;;;24.42;12.65;;;10.30;99.90;;;;;;4912785;29;20462;-85
2021/12/15 13:30:55;;;;;;;26.60;13.45;;;10.30;99.90;;;;;;4929203;29;20048;-85
2021/12/15 13:33:28;;;;;;;23.38;12.00;;;10.30;99.90;;;;;;4882267;29;20044;-85
2021/12/15 13:36:07;;;;;;;20.50;11.65;;;10.30;99.90;;;;;;4935057;29;20040;-85
2021/12/15 13:38:42;;;;;;;23.08;12.32;;;10.20;99.90;;;;;;4918194;29;20082;-85
2021/12/15 13:41:30;;;;;;;24.88;12.25;;;10.20;99.90;;;;;;4922331;29;20039;-84
2021/12/15 13:44:17;;;;;;;22.40;12.13;;;10.20;99.90;;;;;;4916444;29;20055;-84
2021/12/15 13:47:09;;;;;;;21.20;12.00;;;10.20;99.90;;;;;;4913491;29;20047;-83
2021/12/15 13:49:49;;;;;;;20.45;12.48;;;10.20;99.90;;;;;;4897234;29;20126;-84
2021/12/15 13:52:28;;;;;;;24.55;12.00;;;10.20;99.90;;;;;;4896949;29;20040;-84
2021/12/15 13:55:21;;;;;;;22.80;12.52;;;10.10;99.90;;;;;;4910945;29;20051;-84
2021/12/15 13:57:46;;;;;;;20.65;11.77;;;10.10;99.90;;;;;;4907637;29;20135;-84
2021/12/15 14:00:18;;;;;;;24.10;10.55;;;10.20;99.90;;;;;;4902829;29;20134;-85
2021/12/15 14:02:59;;;;;;;15.45;9.25;;;10.10;99.90;;;;;;4897828;29;20036;-85
2021/12/15 14:05:30;;;;;;;16.90;7.32;;;10.10;99.90;;;;;;4919008;29;20047;-84
2021/12/15 14:08:11;;;;;;;16.85;8.32;;;10.10;99.90;;;;;;4914431;29;20055;-85
2021/12/15 14:10:38;;;;;;;17.20;7.32;;;10.00;99.90;;;;;;4932066;29;20126;-85
2021/12/15 14:13:05;;;;;;;15.63;8.27;;;10.00;99.90;;;;;;4918800;29;20118;-85
2021/12/15 14:15:37;;;;;;;14.60;7.45;;;10.00;99.90;;;;;;4900057;29;20055;-84
2021/12/15 14:18:09;;;;;;;12.07;7.50;;;10.00;99.90;;;;;;4895907;29;20044;-85